Weather at Pisticci Flying Field

Public forecast

Using degrees Celsius for public forecast. Weather courtesy of forecast.io.

Closest aviation weather report (METAR) to Pisticci Flying Field

Closest report is Marina di Ginosa Heliport, 11.5 nm (21.4 km) E.

2024/05/19 22:55 (retrieved 33 minutes ago)

LIBH 192255Z AUTO VRB01KT //// 18/16 Q1011

Closest aviation forecast (TAF) to Pisticci Flying Field

Closest forecast is Bari Karol Wojtyła Airport, 44.7 nm (82.9 km) N.

2024/05/19 18:00 (retrieved 5 hours ago)

TAF LIBD 191700Z 1918/2018 VRB05KT 8000 SCT030 TEMPO 1918/1919 TSRA TEMPO 2000/2005 0500 FG BKN005 BECMG 2009/2011 08012KT TEMPO 2012/2015 SHRA